Portada
METAR-TAF:

METAR-TAF

Aeropuertos :

Khorramabad, Irán

latitud: 33-26-11N, longitud: 048-17-09E, altitud: 1155 m

Observación

El informe se hizo hace 13 horas y 46 minutos, a las 12:00 UTC
Viento 4 kt del sur
Temperatura 16°C
Humedad 59%
Presión 1021 hPa
Visibilidad 10 km o más
Nubes dispersas a una altura de 3500 ft, Cumulus congestus.

METAR: OICK 031200Z 19004KT 9999 SCT035TCU 16/08 Q1021

Hora: 05:16 (01:46 UTC)


TAF: falta

Observaciones y pronósticos meteorológicos de más de 4000 aeropuertos (mensajes METAR y TAF).

Los puntos amarillos y rojos representan las estaciones disponibles.

Ponga el ratón en el punto deseado para ver el nombre de la estación.

Haga clic para ver las observaciones y los pronósticos meteorológicos.

Para cambiar el mapa : haga clic en los botones verdes con una cruz de color negro para hacer un zoom, en el botón verde con un guión para alejar o en las flechas verdes para mapas adyacentes.


METAR-TAF: